Time;durP1;ratioP1;P1;durP2;ratioP2;P2;SDS_P1;SDS_P2;PMS_P1;PMS_P2;Temp;Humidity;BMP_temperature;BMP_pressure;BME280_temperature;BME280_humidity;BME280_pressure;Samples;Min_cycle;Max_cycle;Signal;HPM_P1;HPM_P2
2022/04/08 00:01:26;;;;;;;;;1.50;0.25;;;;;9.20;54.54;100138.50;5078626;27;45530;-76
2022/04/08 00:03:53;;;;;;;;;1.00;0.00;;;;;9.38;54.68;100165.25;5073598;28;45552;-75
2022/04/08 00:06:22;;;;;;;;;0.00;0.00;;;;;9.43;54.45;100165.31;5078371;27;45334;-76
2022/04/08 00:08:51;;;;;;;;;0.00;0.00;;;;;9.18;54.38;100113.84;5064392;28;45345;-75
2022/04/08 00:11:17;;;;;;;;;2.00;0.00;;;;;9.46;55.09;100169.75;5070217;27;45635;-75
2022/04/08 00:13:43;;;;;;;;;0.00;0.00;;;;;9.47;54.61;100177.72;5063612;28;45489;-75
2022/04/08 00:16:08;;;;;;;;;0.00;0.00;;;;;9.49;54.97;100169.81;5068695;27;45303;-75
2022/04/08 00:18:35;;;;;;;;;0.50;0.00;;;;;9.49;54.63;100157.50;5067568;28;45328;-74
2022/04/08 00:21:01;;;;;;;;;2.00;0.50;;;;;9.46;55.06;100152.16;5086644;27;45346;-76
2022/04/08 00:23:27;;;;;;;;;1.25;0.75;;;;;9.50;54.87;100161.06;5079203;27;45346;-75
2022/04/08 00:25:52;;;;;;;;;0.00;0.00;;;;;9.44;53.95;100142.44;5077353;27;45382;-75
2022/04/08 00:28:17;;;;;;;;;0.00;0.00;;;;;9.57;54.02;100173.47;5060140;28;45366;-76
2022/04/08 00:30:43;;;;;;;;;0.00;0.00;;;;;9.56;54.63;100161.16;5079582;27;45511;-75
2022/04/08 00:33:08;;;;;;;;;1.00;0.00;;;;;9.41;55.10;100143.31;5078098;28;47137;-75
2022/04/08 00:35:34;;;;;;;;;2.75;0.00;;;;;9.38;54.49;100132.66;5077728;27;45014;-76
2022/04/08 00:37:59;;;;;;;;;1.00;1.00;;;;;9.30;54.75;100119.38;5079497;27;45376;-75
2022/04/08 00:40:24;;;;;;;;;0.25;0.00;;;;;9.36;55.35;100122.09;5077975;27;47564;-75
2022/04/08 00:42:50;;;;;;;;;1.75;0.25;;;;;9.59;54.39;100150.66;5077828;28;46301;-74
2022/04/08 00:45:15;;;;;;;;;2.00;0.75;;;;;9.52;55.37;100139.13;5078735;28;45401;-75
2022/04/08 00:47:41;;;;;;;;;0.25;0.00;;;;;9.41;54.53;100123.09;5077489;28;45264;-75
2022/04/08 00:50:12;;;;;;;;;1.00;0.00;;;;;9.61;55.30;100139.25;5077489;27;45217;-75
2022/04/08 00:52:41;;;;;;;;;0.25;0.25;;;;;9.55;54.63;100133.88;5069757;28;45384;-76
2022/04/08 00:55:07;;;;;;;;;0.00;0.00;;;;;9.43;55.24;100111.66;5076377;28;45270;-76
2022/04/08 00:57:33;;;;;;;;;0.00;0.00;;;;;9.62;55.17;100143.66;5079016;27;45217;-75
2022/04/08 01:00:10;;;;;;;;;0.00;0.00;;;;;9.53;55.02;100124.16;5076422;27;45200;-75
2022/04/08 01:02:37;;;;;;;;;0.50;0.50;;;;;9.58;55.34;100130.41;5067004;28;45462;-76
2022/04/08 01:05:03;;;;;;;;;0.00;0.00;;;;;9.56;55.65;100124.22;5067931;28;47959;-76
2022/04/08 01:07:30;;;;;;;;;0.00;0.00;;;;;9.66;54.81;100141.97;5074299;28;45361;-76
2022/04/08 01:09:56;;;;;;;;;1.25;1.25;;;;;9.44;55.01;100094.97;5068954;28;45235;-75
2022/04/08 01:12:21;;;;;;;;;0.00;0.00;;;;;9.68;54.94;100134.09;5065006;28;45427;-74
2022/04/08 01:14:46;;;;;;;;;0.50;0.00;;;;;9.34;54.66;100078.97;5067583;28;46579;-75
2022/04/08 01:17:12;;;;;;;;;0.00;0.00;;;;;9.48;55.05;100097.69;5064049;28;45315;-76
2022/04/08 01:19:37;;;;;;;;;1.50;0.00;;;;;9.67;55.74;100127.94;5070111;28;45316;-77
2022/04/08 01:22:03;;;;;;;;;0.00;0.00;;;;;9.56;55.00;100105.75;5079906;27;46127;-75
2022/04/08 01:24:29;;;;;;;;;2.00;0.00;;;;;9.47;55.46;100087.13;5067250;28;46215;-77
2022/04/08 01:26:55;;;;;;;;;0.00;0.00;;;;;9.67;55.39;100125.28;5066476;28;45892;-75
2022/04/08 01:29:20;;;;;;;;;0.00;0.00;;;;;9.46;55.71;100090.63;5077453;27;45444;-76
2022/04/08 01:31:46;;;;;;;;;1.75;0.00;;;;;9.53;55.58;100092.50;5065105;27;45680;-76
2022/04/08 01:34:12;;;;;;;;;1.00;1.00;;;;;9.58;55.78;100101.41;5073928;28;45434;-76
2022/04/08 01:36:38;;;;;;;;;1.00;1.00;;;;;9.65;55.84;100116.44;5077259;28;45374;-76
2022/04/08 01:39:05;;;;;;;;;2.50;0.00;;;;;9.43;55.56;100074.72;5068888;27;45403;-76
2022/04/08 01:41:31;;;;;;;;;2.75;0.00;;;;;9.62;55.80;100106.72;5076814;28;47227;-77
2022/04/08 01:43:57;;;;;;;;;1.25;0.00;;;;;9.61;55.94;100107.59;5067807;28;46284;-76
2022/04/08 01:46:22;;;;;;;;;1.00;0.00;;;;;9.55;56.02;100091.69;5078945;28;45303;-76
2022/04/08 01:48:51;;;;;;;;;0.00;0.00;;;;;9.60;55.23;100103.16;5070149;27;45434;-76
2022/04/08 01:51:16;;;;;;;;;0.50;0.00;;;;;9.53;56.25;100080.19;5078231;28;46998;-76
2022/04/08 01:53:41;;;;;;;;;4.75;0.00;;;;;9.25;55.46;100038.41;5068133;27;46114;-75
2022/04/08 01:56:07;;;;;;;;;0.00;0.00;;;;;9.35;56.18;100056.13;5083148;27;45409;-75
2022/04/08 01:58:32;;;;;;;;;2.00;0.00;;;;;9.38;56.38;100053.53;5067570;28;45610;-75
2022/04/08 02:00:58;;;;;;;;;0.50;0.50;;;;;9.37;56.35;100049.13;5077976;27;45359;-75
2022/04/08 02:03:24;;;;;;;;;2.25;0.00;;;;;9.56;55.65;100082.00;5065135;27;47893;-74
2022/04/08 02:05:49;;;;;;;;;1.50;0.50;;;;;9.52;56.34;100074.88;5082286;27;45377;-77
2022/04/08 02:08:15;;;;;;;;;2.00;0.00;;;;;9.60;56.02;100094.38;5064706;27;45263;-76
2022/04/08 02:10:40;;;;;;;;;3.50;0.00;;;;;9.53;56.71;100079.31;5074214;27;45161;-76
2022/04/08 02:13:06;;;;;;;;;0.00;0.00;;;;;9.47;55.77;100066.91;5072544;27;45924;-76
2022/04/08 02:15:33;;;;;;;;;1.75;1.00;;;;;9.59;56.13;100084.69;5072381;27;45333;-76
2022/04/08 02:17:58;;;;;;;;;0.00;0.00;;;;;9.53;56.27;100076.69;5063918;28;45175;-76
2022/04/08 02:20:25;;;;;;;;;1.50;0.00;;;;;9.55;56.16;100074.94;5074601;28;45444;-77
2022/04/08 02:22:51;;;;;;;;;1.75;0.50;;;;;9.60;56.67;100084.69;5081432;28;45329;-76
2022/04/08 02:25:17;;;;;;;;;0.00;0.00;;;;;9.40;56.85;100043.91;5080844;27;45315;-76
2022/04/08 02:27:43;;;;;;;;;2.00;0.00;;;;;9.62;55.94;100082.97;5081571;27;45316;-75
2022/04/08 02:30:09;;;;;;;;;0.00;0.00;;;;;9.60;56.07;100073.25;5079475;28;46089;-75
2022/04/08 02:32:34;;;;;;;;;0.00;0.00;;;;;9.63;55.73;100073.31;5063149;27;45323;-75
2022/04/08 02:35:00;;;;;;;;;0.00;0.00;;;;;9.64;56.09;100083.03;5075894;28;45338;-75
2022/04/08 02:37:25;;;;;;;;;0.00;0.00;;;;;9.57;56.16;100063.53;5077344;27;45635;-76
2022/04/08 02:39:52;;;;;;;;;0.00;0.00;;;;;9.44;56.59;100040.47;5072904;28;45485;-77
2022/04/08 02:42:18;;;;;;;;;0.50;0.50;;;;;9.43;57.03;100033.41;5092637;27;47188;-77
2022/04/08 02:44:43;;;;;;;;;0.00;0.00;;;;;9.49;56.21;100044.06;5072799;28;45497;-76
2022/04/08 02:47:09;;;;;;;;;1.00;0.00;;;;;9.63;56.73;100066.31;5076567;27;45332;-76
2022/04/08 02:49:34;;;;;;;;;1.50;1.00;;;;;9.32;56.36;100000.69;5071616;28;45532;-75
2022/04/08 02:51:59;;;;;;;;;2.00;0.00;;;;;9.67;56.42;100058.44;5074516;27;45680;-74
2022/04/08 02:54:26;;;;;;;;;0.00;0.00;;;;;9.48;56.51;100015.91;5070484;28;45206;-75
2022/04/08 02:56:51;;;;;;;;;2.00;0.00;;;;;9.55;56.30;100016.88;5073765;27;45454;-75
2022/04/08 02:59:17;;;;;;;;;2.00;0.00;;;;;9.67;56.80;100034.69;5068411;28;45442;-75
2022/04/08 03:01:42;;;;;;;;;0.25;0.25;;;;;9.55;56.52;100016.88;5063701;27;45501;-75
2022/04/08 03:04:08;;;;;;;;;0.00;0.00;;;;;9.54;56.62;100025.69;5067345;28;45446;-75
2022/04/08 03:06:34;;;;;;;;;1.50;0.75;;;;;9.68;56.35;100039.09;5073842;27;45390;-74
2022/04/08 03:09:00;;;;;;;;;0.00;0.00;;;;;9.61;56.77;100014.38;5078919;28;47121;-75
2022/04/08 03:11:26;;;;;;;;;2.50;0.00;;;;;9.67;56.34;100021.50;5069440;27;45360;-74
2022/04/08 03:13:51;;;;;;;;;0.00;0.00;;;;;9.61;56.70;100019.66;5077568;28;45409;-74
2022/04/08 03:16:16;;;;;;;;;1.00;0.00;;;;;9.68;56.40;100032.06;5068707;27;45383;-75
2022/04/08 03:18:42;;;;;;;;;2.00;2.00;;;;;9.63;57.41;100015.25;5063772;28;45462;-75
2022/04/08 03:21:07;;;;;;;;;4.00;1.00;;;;;9.65;56.65;100013.53;5080286;27;46630;-75
2022/04/08 03:23:32;;;;;;;;;1.75;0.00;;;;;9.68;57.22;100020.63;5079877;27;45374;-74
2022/04/08 03:25:58;;;;;;;;;0.75;0.75;;;;;9.37;57.26;99965.63;5079240;27;45309;-75
2022/04/08 03:28:23;;;;;;;;;3.00;1.00;;;;;9.50;57.05;99985.19;5078884;28;45288;-74
2022/04/08 03:30:49;;;;;;;;;1.75;0.25;;;;;9.71;56.71;100016.25;5078451;28;47905;-75
2022/04/08 03:33:14;;;;;;;;;0.50;0.50;;;;;9.50;57.83;99984.31;5079784;27;45659;-75
2022/04/08 03:35:40;;;;;;;;;0.00;0.00;;;;;9.69;57.23;100011.81;5069588;27;45812;-74
2022/04/08 03:38:05;;;;;;;;;1.50;0.25;;;;;9.49;58.77;99983.38;5070851;28;45449;-75
2022/04/08 03:40:34;;;;;;;;;2.00;0.75;;;;;9.68;58.23;100007.44;5076732;28;45491;-75
2022/04/08 03:42:59;;;;;;;;;1.75;1.25;;;;;9.68;58.23;100005.66;5070633;27;45381;-75
2022/04/08 03:45:25;;;;;;;;;0.50;0.00;;;;;9.48;58.79;99967.56;5075368;28;45357;-75
2022/04/08 03:47:50;;;;;;;;;2.00;1.00;;;;;9.60;59.09;99981.78;5070123;27;45508;-75
2022/04/08 03:50:16;;;;;;;;;0.00;0.00;;;;;9.64;59.68;99991.56;5071751;28;46160;-76
2022/04/08 03:52:42;;;;;;;;;3.25;0.50;;;;;9.63;60.27;99980.97;5073523;28;45477;-75
2022/04/08 03:55:08;;;;;;;;;0.25;0.25;;;;;9.62;58.93;99972.16;5070348;28;45430;-75
2022/04/08 03:57:33;;;;;;;;;0.25;0.25;;;;;9.40;60.36;99930.50;5069219;28;45270;-75
2022/04/08 03:59:59;;;;;;;;;1.50;0.50;;;;;9.21;60.42;99895.03;5071360;28;47055;-75
2022/04/08 04:02:25;;;;;;;;;2.75;0.50;;;;;9.33;61.41;99920.75;5079435;27;45341;-76
2022/04/08 04:04:50;;;;;;;;;1.25;0.00;;;;;9.46;60.80;99935.84;5075233;27;45468;-75
2022/04/08 04:07:17;;;;;;;;;2.75;0.00;;;;;9.49;60.77;99949.09;5066697;28;45470;-75
2022/04/08 04:09:42;;;;;;;;;2.00;1.00;;;;;9.35;61.85;99924.25;5068820;28;47485;-78
2022/04/08 04:12:09;;;;;;;;;1.00;0.00;;;;;9.26;61.33;99916.22;5064895;28;45342;-78
2022/04/08 04:14:34;;;;;;;;;0.75;0.75;;;;;9.43;62.09;99933.19;5068344;28;45347;-76
2022/04/08 04:16:59;;;;;;;;;1.00;1.00;;;;;9.42;62.75;99939.31;5064183;28;45542;-78
2022/04/08 04:19:25;;;;;;;;;0.00;0.00;;;;;9.40;63.07;99936.66;5068818;28;45346;-76
2022/04/08 04:21:51;;;;;;;;;1.00;1.00;;;;;9.02;62.15;99874.53;5066183;28;45267;-78
2022/04/08 04:24:16;;;;;;;;;3.00;0.00;;;;;8.96;61.98;99854.22;5073485;28;45289;-79
2022/04/08 04:26:41;;;;;;;;;2.75;1.00;;;;;9.17;64.21;99895.88;5080360;27;45441;-75
2022/04/08 04:29:07;;;;;;;;;1.00;1.00;;;;;9.27;64.28;99907.44;5079655;27;46299;-76
2022/04/08 04:31:32;;;;;;;;;1.00;1.00;;;;;9.31;65.04;99907.50;5080118;27;45265;-78
2022/04/08 04:33:58;;;;;;;;;1.50;0.50;;;;;9.31;65.02;99906.63;5079502;27;45338;-79
2022/04/08 04:36:23;;;;;;;;;1.25;0.50;;;;;9.30;65.20;99896.94;5080141;28;45450;-82
2022/04/08 04:38:49;;;;;;;;;1.75;1.00;;;;;9.22;64.98;99886.28;5069486;27;46488;-81
2022/04/08 04:41:15;;;;;;;;;1.75;1.25;;;;;8.93;65.86;99826.13;5078807;27;45240;-83
2022/04/08 04:43:41;;;;;;;;;1.75;0.25;;;;;9.27;66.16;99881.06;5076854;28;45373;-85
2022/04/08 04:46:07;;;;;;;;;2.00;1.00;;;;;9.26;65.54;99880.19;5079470;28;45323;-83
2022/04/08 04:48:32;;;;;;;;;3.00;2.75;;;;;9.10;67.47;99839.53;5067404;28;45582;-83
2022/04/08 04:50:58;;;;;;;;;2.25;2.00;;;;;9.24;65.91;99858.16;5080131;27;45440;-86
2022/04/08 04:53:24;;;;;;;;;2.25;1.00;;;;;9.29;66.28;99851.22;5066109;27;45363;-87
2022/04/08 04:55:49;;;;;;;;;1.25;1.00;;;;;9.00;66.29;99794.56;5082558;27;45379;-81
2022/04/08 04:58:15;;;;;;;;;2.25;0.75;;;;;9.11;62.98;99816.69;5068312;28;45364;-82
2022/04/08 05:00:40;;;;;;;;;1.50;1.00;;;;;9.05;66.44;99799.03;5083232;28;45362;-82
2022/04/08 05:03:08;;;;;;;;;1.00;1.00;;;;;9.22;66.28;99822.13;5081364;27;45285;-84
2022/04/08 05:05:33;;;;;;;;;1.75;1.00;;;;;9.15;66.11;99813.22;5069612;28;45398;-80
2022/04/08 05:08:03;;;;;;;;;2.00;1.00;;;;;9.19;65.36;99818.56;5059833;27;45241;-83
2022/04/08 05:10:29;;;;;;;;;1.00;0.50;;;;;9.17;65.46;99808.88;5066110;28;45482;-82
2022/04/08 05:12:55;;;;;;;;;1.00;0.00;;;;;8.76;66.53;99735.34;5061362;27;45434;-84
2022/04/08 05:15:20;;;;;;;;;1.00;0.00;;;;;8.82;64.42;99747.72;5073334;28;45453;-86
2022/04/08 05:17:45;;;;;;;;;1.00;1.00;;;;;8.91;64.55;99758.44;5080614;27;45911;-80
2022/04/08 05:20:11;;;;;;;;;0.00;0.00;;;;;9.07;66.08;99786.75;5072898;27;45312;-80
2022/04/08 05:22:41;;;;;;;;;1.50;0.00;;;;;8.95;63.20;99765.50;5079043;27;45189;-81
2022/04/08 05:25:07;;;;;;;;;0.00;0.00;;;;;8.71;64.88;99724.78;5078563;27;45497;-81
2022/04/08 05:27:37;;;;;;;;;0.75;0.75;;;;;8.75;65.22;99720.44;5078530;28;45730;-80
2022/04/08 05:30:07;;;;;;;;;0.50;0.50;;;;;8.96;65.81;99756.72;5074297;28;45358;-79
2022/04/08 05:32:32;;;;;;;;;1.00;1.00;;;;;9.05;65.74;99759.50;5078218;28;45370;-80
2022/04/08 05:34:58;;;;;;;;;0.00;0.00;;;;;9.07;67.07;99765.66;5077810;27;45491;-81
2022/04/08 05:37:23;;;;;;;;;3.50;0.75;;;;;9.06;67.07;99747.19;5075179;27;45474;-79
2022/04/08 05:39:48;;;;;;;;;0.50;0.50;;;;;9.07;66.23;99748.97;5071717;28;45482;-80
2022/04/08 05:42:14;;;;;;;;;2.50;1.00;;;;;8.77;66.05;99692.34;5075567;27;45271;-79
2022/04/08 05:44:39;;;;;;;;;1.75;1.00;;;;;8.95;65.76;99718.06;5069618;28;45508;-80
2022/04/08 05:47:05;;;;;;;;;0.75;0.75;;;;;8.94;66.83;99708.41;5074793;27;45359;-82
2022/04/08 05:49:30;;;;;;;;;2.50;1.00;;;;;9.05;66.40;99721.72;5068879;28;44926;-81
2022/04/08 05:51:56;;;;;;;;;0.25;0.25;;;;;8.98;65.84;99704.03;5091258;27;45714;-82
2022/04/08 05:54:21;;;;;;;;;1.00;1.00;;;;;8.93;67.07;99693.44;5066903;28;45246;-81
2022/04/08 05:56:46;;;;;;;;;2.00;1.00;;;;;9.07;67.09;99723.47;5070809;27;46939;-80
2022/04/08 05:59:11;;;;;;;;;1.00;1.00;;;;;8.83;67.96;99668.72;5066889;28;45402;-86
2022/04/08 06:01:37;;;;;;;;;1.00;1.00;;;;;8.99;68.34;99713.72;5089097;27;45529;-83
2022/04/08 06:04:03;;;;;;;;;0.00;0.00;;;;;8.77;66.27;99666.00;5076749;28;45800;-84
2022/04/08 06:06:28;;;;;;;;;2.00;1.00;;;;;8.93;65.25;99696.97;5078799;27;45790;-82
2022/04/08 06:08:53;;;;;;;;;0.00;0.00;;;;;8.67;66.93;99658.84;5078677;27;45224;-82
2022/04/08 06:11:19;;;;;;;;;1.00;1.00;;;;;8.87;67.47;99683.69;5063703;27;45216;-82
2022/04/08 06:13:44;;;;;;;;;3.00;1.00;;;;;8.89;67.45;99689.88;5061941;28;45219;-82
2022/04/08 06:16:10;;;;;;;;;3.50;0.75;;;;;8.69;68.65;99651.84;5068671;27;46084;-80
2022/04/08 06:18:35;;;;;;;;;0.75;0.25;;;;;8.83;69.30;99670.47;5075784;28;45385;-79
2022/04/08 06:21:01;;;;;;;;;1.50;1.00;;;;;8.69;67.52;99650.09;5078863;28;45454;-82
2022/04/08 06:23:27;;;;;;;;;1.00;1.00;;;;;8.54;67.46;99618.25;5080025;27;46419;-79
2022/04/08 06:25:52;;;;;;;;;1.00;1.00;;;;;8.69;67.08;99639.56;5081034;27;45893;-80
2022/04/08 06:28:18;;;;;;;;;1.00;1.00;;;;;8.18;68.51;99561.59;5081178;28;45267;-80
2022/04/08 06:30:43;;;;;;;;;1.00;1.00;;;;;8.49;67.97;99615.59;5078232;27;45886;-80
2022/04/08 06:33:09;;;;;;;;;1.75;0.00;;;;;8.69;65.49;99650.09;5078354;27;45408;-81
2022/04/08 06:35:34;;;;;;;;;0.50;0.50;;;;;8.43;65.48;99598.81;5078883;28;47814;-80
2022/04/08 06:38:06;;;;;;;;;0.25;0.25;;;;;8.69;65.90;99646.59;5075270;27;45327;-80
2022/04/08 06:40:35;;;;;;;;;0.50;0.00;;;;;8.54;65.73;99620.91;5079498;28;45365;-82
2022/04/08 06:43:00;;;;;;;;;0.00;0.00;;;;;8.53;65.43;99611.25;5071283;28;47294;-80
2022/04/08 06:45:26;;;;;;;;;0.25;0.00;;;;;8.46;65.80;99601.50;5076274;28;46310;-79
2022/04/08 06:47:52;;;;;;;;;2.00;1.00;;;;;8.70;67.13;99638.69;5071968;27;45343;-78
2022/04/08 06:50:18;;;;;;;;;0.00;0.00;;;;;8.41;66.12;99590.91;5073908;28;45464;-79
2022/04/08 06:52:44;;;;;;;;;1.25;0.00;;;;;8.49;66.51;99593.63;5070185;28;45298;-79
2022/04/08 06:55:10;;;;;;;;;1.00;1.00;;;;;8.74;66.81;99642.25;5073164;28;45436;-79
2022/04/08 06:57:36;;;;;;;;;0.00;0.00;;;;;8.73;66.33;99646.63;5079277;28;45388;-78
2022/04/08 07:00:04;;;;;;;;;1.00;1.00;;;;;8.63;66.46;99635.97;5077348;27;45334;-78
2022/04/08 07:02:29;;;;;;;;;0.25;0.00;;;;;8.40;65.73;99594.41;5065963;28;46092;-77
2022/04/08 07:04:55;;;;;;;;;0.50;0.50;;;;;8.49;66.59;99618.22;5072996;28;45886;-77
2022/04/08 07:07:20;;;;;;;;;3.00;1.25;;;;;8.38;66.33;99589.94;5071435;28;45963;-75
2022/04/08 07:09:45;;;;;;;;;1.00;1.00;;;;;8.28;66.13;99568.75;5068957;28;45042;-75
2022/04/08 07:12:11;;;;;;;;;2.00;0.50;;;;;8.55;65.89;99603.38;5061172;28;45225;-76
2022/04/08 07:14:36;;;;;;;;;0.50;0.25;;;;;8.48;67.02;99602.38;5064479;28;45279;-75
2022/04/08 07:17:01;;;;;;;;;0.25;0.25;;;;;8.64;66.23;99606.13;5060899;28;45217;-75
2022/04/08 07:19:27;;;;;;;;;4.00;1.00;;;;;8.43;66.41;99578.66;5065213;28;45327;-74
2022/04/08 07:21:52;;;;;;;;;1.25;0.25;;;;;8.58;66.52;99590.25;5062367;27;45485;-75
2022/04/08 07:24:18;;;;;;;;;1.50;1.50;;;;;8.66;66.86;99593.84;5065101;28;45233;-74
2022/04/08 07:26:44;;;;;;;;;4.25;1.00;;;;;8.67;65.73;99591.22;5072964;28;45335;-75
2022/04/08 07:29:09;;;;;;;;;1.00;1.00;;;;;8.68;66.35;99581.56;5064061;27;45435;-76
2022/04/08 07:31:36;;;;;;;;;1.25;1.25;;;;;8.55;68.57;99558.59;5079709;27;45472;-75
2022/04/08 07:34:01;;;;;;;;;2.75;1.75;;;;;8.58;67.03;99548.97;5079149;27;46175;-75
2022/04/08 07:36:26;;;;;;;;;3.00;3.00;;;;;8.44;68.09;99521.59;5079854;27;45349;-74
2022/04/08 07:38:52;;;;;;;;;3.25;2.00;;;;;8.63;66.92;99562.22;5078504;28;45291;-75
2022/04/08 07:41:17;;;;;;;;;5.00;2.00;;;;;8.38;67.28;99517.09;5079697;27;45355;-75
2022/04/08 07:43:42;;;;;;;;;3.50;2.00;;;;;8.33;65.64;99504.75;5067984;27;45456;-74
2022/04/08 07:46:08;;;;;;;;;3.75;2.25;;;;;8.47;68.52;99525.13;5078499;28;45259;-74
2022/04/08 07:48:33;;;;;;;;;1.00;1.00;;;;;8.07;67.63;99458.81;5082292;27;45658;-73
2022/04/08 07:50:59;;;;;;;;;2.00;2.00;;;;;8.07;67.45;99452.66;5079637;28;45564;-75
2022/04/08 07:53:24;;;;;;;;;3.50;3.00;;;;;8.01;69.60;99449.94;5067801;27;45516;-72
2022/04/08 07:55:49;;;;;;;;;2.25;1.00;;;;;8.16;66.63;99471.19;5077904;27;45261;-74
2022/04/08 07:58:15;;;;;;;;;2.00;2.00;;;;;8.07;69.31;99466.69;5078182;28;45321;-74
2022/04/08 08:00:41;;;;;;;;;2.25;2.25;;;;;7.97;70.46;99445.50;5072831;27;45932;-74
2022/04/08 08:03:06;;;;;;;;;2.00;1.00;;;;;8.06;69.13;99475.44;5066512;27;45944;-75
2022/04/08 08:05:32;;;;;;;;;2.00;1.75;;;;;8.01;68.15;99465.72;5066589;28;45446;-74
2022/04/08 08:08:01;;;;;;;;;1.50;1.00;;;;;7.78;68.83;99436.47;5064637;27;45244;-74
2022/04/08 08:10:31;;;;;;;;;3.25;1.50;;;;;7.80;70.33;99435.63;5068126;28;45485;-75
2022/04/08 08:12:58;;;;;;;;;2.00;1.00;;;;;7.91;71.34;99458.59;5061532;28;47237;-74
2022/04/08 08:15:24;;;;;;;;;2.00;1.75;;;;;7.84;69.61;99445.34;5076015;28;45433;-74
2022/04/08 08:17:51;;;;;;;;;3.25;3.00;;;;;7.68;70.24;99403.06;5059931;28;45657;-74
2022/04/08 08:20:20;;;;;;;;;2.25;2.00;;;;;7.29;70.72;99354.31;5076669;27;45460;-74
2022/04/08 08:22:46;;;;;;;;;4.00;2.00;;;;;7.71;71.72;99425.00;5078863;27;46338;-73
2022/04/08 08:25:12;;;;;;;;;3.00;3.00;;;;;7.96;70.86;99446.38;5078328;27;45457;-73
2022/04/08 08:27:43;;;;;;;;;4.50;2.00;;;;;7.63;69.11;99384.56;5079064;27;45258;-74
2022/04/08 08:30:10;;;;;;;;;5.00;3.25;;;;;7.69;70.89;99387.28;5077656;27;45513;-74
2022/04/08 08:32:37;;;;;;;;;2.00;2.00;;;;;7.84;69.54;99415.50;5063515;27;45505;-73
2022/04/08 08:35:04;;;;;;;;;3.00;2.00;;;;;7.62;69.14;99381.06;5071651;28;45343;-73
2022/04/08 08:37:31;;;;;;;;;3.00;2.00;;;;;7.79;69.37;99406.69;5074908;28;45358;-75
2022/04/08 08:39:57;;;;;;;;;7.50;3.00;;;;;7.70;71.85;99375.91;5070126;28;45430;-75
2022/04/08 08:42:23;;;;;;;;;3.25;2.75;;;;;7.60;69.36;99360.88;5077244;28;46865;-73
2022/04/08 08:44:49;;;;;;;;;5.75;3.50;;;;;7.29;69.50;99314.88;5073468;28;45482;-75
2022/04/08 08:47:17;;;;;;;;;2.00;1.50;;;;;7.75;70.10;99402.25;5071773;28;45368;-73
2022/04/08 08:49:52;;;;;;;;;6.75;2.50;;;;;7.58;71.98;99402.91;5070158;28;46299;-74
2022/04/08 08:52:21;;;;;;;;;1.25;1.25;;;;;7.32;70.71;99362.25;5069801;27;46855;-74
2022/04/08 08:54:47;;;;;;;;;2.00;1.00;;;;;7.11;71.91;99340.06;5070800;28;45390;-74
2022/04/08 08:57:16;;;;;;;;;3.00;2.00;;;;;7.25;71.42;99348.09;5066164;27;45374;-74
2022/04/08 08:59:42;;;;;;;;;3.50;3.00;;;;;7.19;73.21;99334.88;5071496;28;45239;-74
2022/04/08 09:02:07;;;;;;;;;3.25;3.25;;;;;7.30;74.00;99338.53;5064291;27;45459;-74
2022/04/08 09:04:40;;;;;;;;;4.00;3.00;;;;;6.90;73.87;99267.06;5067747;28;45493;-74
2022/04/08 09:07:06;;;;;;;;;4.00;3.75;;;;;6.70;74.93;99232.63;5078911;27;45336;-74
2022/04/08 09:09:32;;;;;;;;;4.50;2.50;;;;;7.18;73.99;99289.34;5074603;28;46040;-73
2022/04/08 09:12:12;;;;;;;;;1.75;1.75;;;;;7.10;71.81;99253.31;5070404;27;45242;-74
2022/04/08 09:14:38;;;;;;;;;4.00;2.00;;;;;6.93;75.97;99245.22;5067881;28;45428;-74
2022/04/08 09:17:03;;;;;;;;;7.25;3.00;;;;;7.27;72.63;99319.22;5078257;27;45414;-75
2022/04/08 09:19:33;;;;;;;;;2.50;2.50;;;;;7.15;74.12;99286.66;5068989;27;45581;-75
2022/04/08 09:21:59;;;;;;;;;2.00;2.00;;;;;7.03;71.97;99244.47;5059467;28;47099;-73
2022/04/08 09:24:24;;;;;;;;;1.25;1.25;;;;;6.90;73.02;99227.66;5067661;28;45427;-74
2022/04/08 09:26:54;;;;;;;;;2.25;2.00;;;;;7.26;71.67;99320.09;5078474;28;45349;-74
2022/04/08 09:29:20;;;;;;;;;1.50;1.50;;;;;7.27;72.80;99327.13;5077648;27;46158;-74
2022/04/08 09:31:49;;;;;;;;;1.00;0.25;;;;;7.14;72.63;99261.28;5077814;27;45475;-74
2022/04/08 09:34:16;;;;;;;;;1.00;1.00;;;;;7.05;72.44;99249.75;5065741;27;45794;-74
2022/04/08 09:36:43;;;;;;;;;1.00;1.00;;;;;6.98;73.72;99361.75;5078446;27;45415;-74
2022/04/08 09:39:10;;;;;;;;;2.75;2.00;;;;;6.87;76.94;99363.31;5066102;27;45418;-74
2022/04/08 09:41:37;;;;;;;;;1.00;1.00;;;;;6.83;75.57;99288.81;5076059;28;45382;-75
2022/04/08 09:44:03;;;;;;;;;2.00;2.00;;;;;6.99;73.47;99326.72;5060910;27;45257;-74
2022/04/08 09:46:28;;;;;;;;;1.75;1.75;;;;;6.86;75.22;99328.28;5073842;28;45324;-74
2022/04/08 09:48:54;;;;;;;;;1.50;1.00;;;;;6.97;73.96;99328.44;5076950;28;45283;-73
2022/04/08 09:51:20;;;;;;;;;1.00;1.00;;;;;7.01;73.94;99317.13;5074118;28;45394;-74
2022/04/08 09:53:57;;;;;;;;;2.75;1.75;;;;;6.97;73.99;99290.78;5062690;28;45424;-74
2022/04/08 09:56:25;;;;;;;;;4.00;2.00;;;;;7.08;73.42;99332.09;5069669;27;45427;-74
2022/04/08 09:58:59;;;;;;;;;4.50;2.50;;;;;6.97;73.63;99335.44;5064212;27;45241;-73
2022/04/08 10:01:28;;;;;;;;;3.25;1.00;;;;;7.09;74.60;99348.78;5065956;28;47343;-74
2022/04/08 10:03:53;;;;;;;;;3.75;2.50;;;;;7.14;74.84;99350.59;5063330;28;45493;-72
2022/04/08 10:06:19;;;;;;;;;2.00;2.00;;;;;7.19;72.63;99366.41;5069525;28;44760;-74
2022/04/08 10:08:46;;;;;;;;;3.00;3.00;;;;;7.20;72.38;99368.22;5061292;28;46141;-74
2022/04/08 10:11:42;;;;;;;;;1.00;1.00;;;;;7.06;73.33;99359.25;5080420;28;46187;-74
2022/04/08 10:14:23;;;;;;;;;2.00;2.00;;;;;6.95;74.95;99315.28;5070749;28;45264;-74
2022/04/08 10:16:52;;;;;;;;;4.00;2.50;;;;;7.06;73.78;99312.81;5072459;28;45227;-74
2022/04/08 10:19:18;;;;;;;;;3.75;3.75;;;;;6.97;73.25;99280.28;5080507;28;45299;-74
2022/04/08 10:21:51;;;;;;;;;4.00;3.00;;;;;7.08;72.72;99284.81;5081159;28;45319;-73
2022/04/08 10:24:24;;;;;;;;;3.50;3.50;;;;;7.01;71.93;99272.47;5080861;27;45558;-73
2022/04/08 10:26:57;;;;;;;;;4.00;4.00;;;;;7.02;75.04;99276.84;5072841;28;45232;-74
2022/04/08 10:29:22;;;;;;;;;6.00;4.00;;;;;6.66;72.01;99165.16;5079048;28;46116;-73
2022/04/08 10:32:00;;;;;;;;;5.00;3.00;;;;;6.95;73.98;99209.34;5080882;27;45387;-73
2022/04/08 10:34:26;;;;;;;;;6.25;4.50;;;;;6.77;73.36;99198.56;5078587;28;45368;-73
2022/04/08 10:36:52;;;;;;;;;5.00;5.00;;;;;6.81;75.50;99226.66;5081586;28;45363;-73
2022/04/08 10:39:23;;;;;;;;;6.75;5.00;;;;;6.80;76.91;99157.47;5067677;27;45264;-74
2022/04/08 10:42:03;;;;;;;;;5.75;3.50;;;;;6.76;75.46;99136.44;5067623;27;45501;-74
2022/04/08 10:44:39;;;;;;;;;1.25;1.00;;;;;6.70;76.22;99160.88;5069563;28;45466;-73
2022/04/08 10:47:11;;;;;;;;;3.00;3.00;;;;;6.52;74.54;99143.09;5074461;27;45414;-74
2022/04/08 10:50:07;;;;;;;;;2.25;2.00;;;;;6.14;74.45;99111.97;5070736;28;45466;-74
2022/04/08 10:52:40;;;;;;;;;4.00;3.00;;;;;6.75;75.14;99265.94;5065212;28;47721;-75
2022/04/08 10:55:11;;;;;;;;;1.25;1.25;;;;;6.67;74.99;99277.22;5079244;28;45565;-74
2022/04/08 10:57:39;;;;;;;;;3.75;3.25;;;;;6.59;75.99;99222.84;5071224;27;45415;-74
2022/04/08 11:00:07;;;;;;;;;3.00;3.00;;;;;6.64;75.17;99193.16;5073072;28;45477;-74
2022/04/08 11:02:37;;;;;;;;;1.75;1.75;;;;;6.51;75.95;99180.72;5059655;28;46578;-74
2022/04/08 11:05:21;;;;;;;;;1.50;1.00;;;;;6.46;74.46;99216.50;5070274;28;45402;-75
2022/04/08 11:07:48;;;;;;;;;2.50;2.00;;;;;6.53;75.29;99215.75;5069424;28;45446;-74
2022/04/08 11:10:19;;;;;;;;;2.00;1.00;;;;;6.54;74.53;99182.50;5068583;28;45411;-74
2022/04/08 11:12:52;;;;;;;;;4.25;2.00;;;;;6.47;76.11;99173.69;5077663;28;47524;-75
2022/04/08 11:15:19;;;;;;;;;2.00;2.00;;;;;6.61;74.17;99198.38;5079626;27;45474;-75
2022/04/08 11:17:49;;;;;;;;;3.75;2.75;;;;;6.66;73.50;99194.06;5079741;27;45339;-74
2022/04/08 11:20:17;;;;;;;;;4.00;3.00;;;;;6.62;73.88;99163.38;5071592;28;46466;-74
2022/04/08 11:22:46;;;;;;;;;3.00;3.00;;;;;6.69;73.62;99144.22;5070258;28;47361;-74
2022/04/08 11:25:24;;;;;;;;;3.00;3.00;;;;;6.59;75.70;99149.34;5074795;28;45420;-73
2022/04/08 11:28:01;;;;;;;;;4.00;2.50;;;;;6.78;74.26;99174.06;5079127;28;45301;-74
2022/04/08 11:30:27;;;;;;;;;2.50;2.50;;;;;6.70;75.24;99174.88;5074850;28;46096;-75
2022/04/08 11:32:52;;;;;;;;;4.00;4.00;;;;;6.55;75.99;99172.00;5079102;28;45358;-75
2022/04/08 11:35:18;;;;;;;;;3.00;3.00;;;;;6.44;74.65;99145.63;5078734;27;45421;-75
2022/04/08 11:37:44;;;;;;;;;3.50;3.00;;;;;6.52;74.19;99161.47;5073473;27;45339;-76